createdAt,value
2022-10-03T00:00:02.859Z,10.00
2022-10-03T00:01:02.964Z,10.00
2022-10-03T00:02:03.027Z,10.00
2022-10-03T00:03:03.102Z,10.00
2022-10-03T00:04:02.955Z,10.00
2022-10-03T00:05:03.140Z,10.00
2022-10-03T00:06:03.058Z,10.00
2022-10-03T00:07:03.231Z,10.00
2022-10-03T00:08:03.158Z,10.00
2022-10-03T00:09:03.250Z,10.00
2022-10-03T00:10:03.571Z,10.00
2022-10-03T00:11:02.632Z,9.90
2022-10-03T00:12:02.688Z,9.90
2022-10-03T00:13:02.685Z,9.90
2022-10-03T00:14:02.801Z,9.90
2022-10-03T00:15:02.854Z,9.90
2022-10-03T00:16:02.958Z,9.90
2022-10-03T00:17:03.081Z,9.90
2022-10-03T00:18:03.058Z,9.90
2022-10-03T00:19:03.086Z,9.90
2022-10-03T00:20:03.154Z,9.90
2022-10-03T00:21:03.272Z,9.90
2022-10-03T00:22:03.301Z,9.90
2022-10-03T00:23:03.380Z,9.90
2022-10-03T00:24:03.377Z,9.90
2022-10-03T00:25:03.351Z,9.80
2022-10-03T00:26:03.361Z,9.80
2022-10-03T00:27:03.417Z,9.80
2022-10-03T00:28:03.521Z,9.80
2022-10-03T00:29:03.592Z,9.80
2022-10-03T00:30:03.585Z,9.80
2022-10-03T00:31:03.526Z,9.80
2022-10-03T00:32:03.457Z,9.80
2022-10-03T00:33:03.443Z,9.80
2022-10-03T00:34:03.490Z,9.80
2022-10-03T00:35:03.572Z,9.80
2022-10-03T00:36:02.671Z,9.80
2022-10-03T00:37:02.673Z,9.80
2022-10-03T00:38:02.600Z,9.80
2022-10-03T00:39:03.285Z,9.80
2022-10-03T00:40:03.227Z,9.80
2022-10-03T00:41:03.292Z,9.80
2022-10-03T00:42:03.283Z,9.80
2022-10-03T00:43:03.292Z,9.80
2022-10-03T00:44:03.342Z,9.80
2022-10-03T00:45:03.336Z,9.80
2022-10-03T00:46:03.551Z,9.80
2022-10-03T00:47:03.558Z,9.80
2022-10-03T00:48:03.507Z,9.70
2022-10-03T00:49:03.573Z,9.70
2022-10-03T00:50:03.636Z,9.70
2022-10-03T00:51:03.581Z,9.70
2022-10-03T00:52:03.595Z,9.70
2022-10-03T00:53:02.676Z,9.70
2022-10-03T00:54:02.644Z,9.70
2022-10-03T00:55:02.601Z,9.70
2022-10-03T00:56:02.672Z,9.70
2022-10-03T00:57:02.905Z,9.70
2022-10-03T00:58:02.817Z,9.70
2022-10-03T00:59:02.837Z,9.70
2022-10-03T01:00:02.784Z,9.70
2022-10-03T01:01:02.998Z,9.70
2022-10-03T01:02:03.126Z,9.70
2022-10-03T01:03:03.076Z,9.60
2022-10-03T01:04:03.165Z,9.60
2022-10-03T01:05:03.513Z,9.60
2022-10-03T01:06:03.491Z,9.60
2022-10-03T01:07:03.573Z,9.60
2022-10-03T01:08:03.576Z,9.60
2022-10-03T01:09:02.632Z,9.60
2022-10-03T01:10:02.662Z,9.60
2022-10-03T01:11:02.597Z,9.60
2022-10-03T01:12:02.703Z,9.60
2022-10-03T01:13:02.722Z,9.60
2022-10-03T01:14:02.788Z,9.60
2022-10-03T01:15:02.979Z,9.60
2022-10-03T01:16:02.959Z,9.60
2022-10-03T01:17:03.095Z,9.60
2022-10-03T01:18:03.099Z,9.60
2022-10-03T01:19:03.104Z,9.60
2022-10-03T01:20:03.219Z,9.60
2022-10-03T01:21:03.287Z,9.60
2022-10-03T01:22:03.242Z,9.60
2022-10-03T01:23:03.340Z,9.70
2022-10-03T01:24:03.333Z,9.70
2022-10-03T01:25:03.425Z,9.70
2022-10-03T01:26:03.460Z,9.70
2022-10-03T01:27:03.508Z,9.70
2022-10-03T01:28:02.644Z,9.70
2022-10-03T01:29:02.710Z,9.70
2022-10-03T01:30:02.791Z,9.70
2022-10-03T01:31:02.853Z,9.70
2022-10-03T01:32:02.946Z,9.70
2022-10-03T01:33:02.911Z,9.70
2022-10-03T01:34:02.984Z,9.70
2022-10-03T01:35:03.029Z,9.70
2022-10-03T01:36:03.368Z,9.70
2022-10-03T01:37:03.665Z,9.70
2022-10-03T01:38:03.585Z,9.70
2022-10-03T01:39:02.686Z,9.70
2022-10-03T01:40:02.600Z,9.70
2022-10-03T01:41:02.618Z,9.70
2022-10-03T01:42:02.746Z,9.70
2022-10-03T01:43:02.743Z,9.70
2022-10-03T01:44:02.915Z,9.70
2022-10-03T01:45:02.927Z,9.70
2022-10-03T01:46:03.047Z,9.70
2022-10-03T01:47:03.054Z,9.70
2022-10-03T01:48:03.140Z,9.70
2022-10-03T01:49:03.144Z,9.70
2022-10-03T01:50:03.149Z,9.80
2022-10-03T01:51:03.170Z,9.70
2022-10-03T01:52:03.253Z,9.70
2022-10-03T01:53:03.187Z,9.70
2022-10-03T01:54:03.328Z,9.80
2022-10-03T01:55:03.467Z,9.80
2022-10-03T01:56:03.502Z,9.80
2022-10-03T01:57:03.472Z,9.80
2022-10-03T01:58:03.607Z,9.80
2022-10-03T01:59:03.570Z,9.80
2022-10-03T02:00:03.571Z,9.80
2022-10-03T02:01:03.626Z,9.80
2022-10-03T02:02:03.616Z,9.80
2022-10-03T02:03:03.618Z,9.80
2022-10-03T02:04:02.742Z,9.70
2022-10-03T02:05:02.734Z,9.80
2022-10-03T02:06:02.749Z,9.80
2022-10-03T02:07:02.835Z,9.80
2022-10-03T02:08:02.829Z,9.80
2022-10-03T02:09:03.003Z,9.80
2022-10-03T02:10:02.931Z,9.80
2022-10-03T02:11:02.959Z,9.80
2022-10-03T02:12:02.952Z,9.80
2022-10-03T02:13:02.700Z,9.80
2022-10-03T02:14:02.823Z,9.80
2022-10-03T02:15:02.863Z,9.80
2022-10-03T02:16:03.011Z,9.80
2022-10-03T02:17:03.071Z,9.80
2022-10-03T02:18:03.040Z,9.80
2022-10-03T02:19:03.087Z,9.80
2022-10-03T02:20:03.039Z,9.80
2022-10-03T02:21:03.054Z,9.80
2022-10-03T02:22:03.197Z,9.80
2022-10-03T02:23:03.295Z,9.80
2022-10-03T02:24:03.445Z,9.80
2022-10-03T02:25:03.515Z,9.90
2022-10-03T02:26:03.548Z,9.90
2022-10-03T02:27:03.505Z,9.90
2022-10-03T02:28:03.592Z,9.90
2022-10-03T02:29:02.700Z,9.90
2022-10-03T02:30:02.812Z,9.90
2022-10-03T02:31:02.819Z,9.90
2022-10-03T02:32:02.931Z,9.90
2022-10-03T02:33:02.997Z,9.90
2022-10-03T02:34:03.842Z,9.90
2022-10-03T02:35:02.944Z,9.90
2022-10-03T02:36:03.080Z,9.90
2022-10-03T02:37:03.143Z,9.90
2022-10-03T02:38:03.316Z,10.00
2022-10-03T02:39:03.338Z,10.00
2022-10-03T02:40:03.468Z,10.00
2022-10-03T02:41:03.427Z,10.00
2022-10-03T02:42:03.355Z,10.00
2022-10-03T02:43:03.469Z,10.00
2022-10-03T02:44:03.544Z,10.00
2022-10-03T02:45:03.589Z,10.00
2022-10-03T02:46:03.646Z,10.00
2022-10-03T02:47:02.673Z,10.00
2022-10-03T02:48:20.101Z,10.00
2022-10-03T02:49:02.823Z,10.00
2022-10-03T02:50:02.977Z,10.00
2022-10-03T02:51:03.005Z,10.00
2022-10-03T02:52:03.033Z,10.10
2022-10-03T02:53:02.995Z,10.10
2022-10-03T02:54:02.997Z,10.10
2022-10-03T02:55:03.054Z,10.10
2022-10-03T02:56:03.181Z,10.10
2022-10-03T02:57:02.661Z,10.10
2022-10-03T02:58:02.744Z,10.10
2022-10-03T02:59:02.742Z,10.10
2022-10-03T03:00:02.736Z,10.10
2022-10-03T03:01:02.935Z,10.10
2022-10-03T03:02:02.960Z,10.10
2022-10-03T03:03:02.916Z,10.10
2022-10-03T03:04:02.994Z,10.10
2022-10-03T03:05:03.012Z,10.10
2022-10-03T03:06:03.018Z,10.10
2022-10-03T03:07:03.059Z,10.10
2022-10-03T03:08:03.011Z,10.10
2022-10-03T03:09:03.167Z,10.10
2022-10-03T03:10:03.266Z,10.10
2022-10-03T03:11:03.334Z,10.10
2022-10-03T03:12:03.414Z,10.10
2022-10-03T03:13:03.488Z,10.10
2022-10-03T03:14:03.484Z,10.10
2022-10-03T03:15:03.469Z,10.10
2022-10-03T03:16:03.628Z,10.10
2022-10-03T03:17:03.617Z,10.10
2022-10-03T03:18:03.617Z,10.10
2022-10-03T03:19:02.682Z,10.10
2022-10-03T03:20:02.684Z,10.10
2022-10-03T03:21:02.896Z,10.10
2022-10-03T03:22:03.016Z,10.10
2022-10-03T03:23:02.959Z,10.10
2022-10-03T03:24:03.018Z,10.10
2022-10-03T03:25:03.024Z,10.10
2022-10-03T03:26:03.185Z,10.10
2022-10-03T03:27:03.251Z,10.00
2022-10-03T03:28:03.204Z,10.00
2022-10-03T03:29:03.151Z,10.00
2022-10-03T03:30:03.286Z,10.00
2022-10-03T03:31:03.288Z,10.00
2022-10-03T03:32:03.487Z,10.00
2022-10-03T03:33:03.364Z,10.00
2022-10-03T03:34:03.507Z,10.00
2022-10-03T03:35:03.558Z,10.00
2022-10-03T03:36:02.621Z,10.00
2022-10-03T03:37:02.740Z,9.90
2022-10-03T03:38:02.794Z,9.90
2022-10-03T03:39:02.831Z,9.90
2022-10-03T03:40:03.010Z,9.90
2022-10-03T03:41:03.039Z,9.90
2022-10-03T03:42:03.084Z,9.90
2022-10-03T03:43:03.178Z,9.90
2022-10-03T03:44:03.309Z,9.90
2022-10-03T03:45:03.322Z,10.00
2022-10-03T03:46:03.373Z,9.90
2022-10-03T03:47:03.467Z,9.90
2022-10-03T03:48:03.496Z,9.90
2022-10-03T03:49:03.582Z,10.00
2022-10-03T03:50:03.588Z,10.00
2022-10-03T03:51:02.667Z,10.00
2022-10-03T03:52:02.696Z,10.00
2022-10-03T03:53:02.807Z,10.00
2022-10-03T03:54:02.897Z,10.00
2022-10-03T03:55:02.857Z,10.00
2022-10-03T03:56:02.936Z,10.00
2022-10-03T03:57:02.942Z,10.00
2022-10-03T03:58:03.149Z,10.00
2022-10-03T03:59:03.271Z,10.00
2022-10-03T04:00:03.207Z,10.00
2022-10-03T04:01:03.322Z,10.00
2022-10-03T04:02:03.320Z,10.00
2022-10-03T04:03:03.242Z,10.00
2022-10-03T04:04:03.227Z,10.00
2022-10-03T04:05:03.309Z,10.00
2022-10-03T04:06:03.332Z,10.00
2022-10-03T04:07:02.905Z,10.00
2022-10-03T04:08:02.906Z,10.00
2022-10-03T04:09:02.919Z,10.00
2022-10-03T04:10:03.047Z,10.00
2022-10-03T04:11:03.044Z,10.00
2022-10-03T04:12:03.146Z,10.00
2022-10-03T04:13:03.197Z,10.00
2022-10-03T04:14:03.265Z,10.00
2022-10-03T04:15:03.343Z,10.00
2022-10-03T04:16:03.567Z,10.00
2022-10-03T04:17:03.568Z,10.00
2022-10-03T04:18:03.528Z,10.00
2022-10-03T04:19:03.591Z,10.00
2022-10-03T04:20:03.584Z,10.00
2022-10-03T04:21:03.625Z,10.00
2022-10-03T04:22:03.552Z,10.00
2022-10-03T04:23:02.605Z,10.10
2022-10-03T04:24:03.615Z,10.10
2022-10-03T04:25:02.963Z,10.10
2022-10-03T04:26:02.938Z,10.10
2022-10-03T04:27:02.878Z,10.10
2022-10-03T04:28:03.166Z,10.10
2022-10-03T04:29:03.165Z,10.10
2022-10-03T04:30:03.290Z,10.10
2022-10-03T04:31:03.367Z,10.10
2022-10-03T04:32:03.528Z,10.10
2022-10-03T04:33:03.472Z,10.10
2022-10-03T04:34:03.503Z,10.10
2022-10-03T04:35:03.601Z,10.10
2022-10-03T04:36:03.536Z,10.10
2022-10-03T04:37:02.679Z,10.20
2022-10-03T04:38:02.653Z,10.10
2022-10-03T04:39:02.698Z,10.20
2022-10-03T04:40:02.855Z,10.10
2022-10-03T04:41:02.908Z,10.20
2022-10-03T04:42:02.998Z,10.20
2022-10-03T04:43:03.042Z,10.20
2022-10-03T04:44:02.994Z,10.20
2022-10-03T04:45:03.089Z,10.20
2022-10-03T04:46:03.272Z,10.20
2022-10-03T04:47:03.246Z,10.20
2022-10-03T04:48:03.216Z,10.20
2022-10-03T04:49:03.361Z,10.20
2022-10-03T04:50:03.483Z,10.20
2022-10-03T04:51:03.555Z,10.20
2022-10-03T04:52:03.593Z,10.20
2022-10-03T04:53:02.609Z,10.20
2022-10-03T04:54:02.794Z,10.20
2022-10-03T04:55:02.860Z,10.20
2022-10-03T04:56:02.831Z,10.20
2022-10-03T04:57:02.946Z,10.20
2022-10-03T04:58:05.041Z,10.20
2022-10-03T04:59:02.980Z,10.20
2022-10-03T05:00:03.077Z,10.20
2022-10-03T05:01:03.118Z,10.30
2022-10-03T05:02:03.364Z,10.30
2022-10-03T05:03:03.264Z,10.30
2022-10-03T05:04:03.402Z,10.30
2022-10-03T05:05:03.411Z,10.30
2022-10-03T05:06:03.522Z,10.30
2022-10-03T05:07:03.578Z,10.30
2022-10-03T05:08:03.579Z,10.30
2022-10-03T05:09:02.707Z,10.30
2022-10-03T05:10:05.967Z,10.30
2022-10-03T05:11:02.824Z,10.30
2022-10-03T05:12:02.923Z,10.30
2022-10-03T05:13:02.908Z,10.30
2022-10-03T05:14:02.964Z,10.30
2022-10-03T05:15:03.032Z,10.30
2022-10-03T05:16:03.080Z,10.30
2022-10-03T05:17:03.095Z,10.30
2022-10-03T05:18:03.138Z,10.30
2022-10-03T05:19:03.155Z,10.30
2022-10-03T05:20:03.180Z,10.30
2022-10-03T05:21:03.112Z,10.30
2022-10-03T05:22:03.172Z,10.30
2022-10-03T05:23:03.199Z,10.30
2022-10-03T05:24:03.198Z,10.30
2022-10-03T05:25:03.218Z,10.30
2022-10-03T05:26:23.462Z,10.30
2022-10-03T05:27:03.558Z,10.30
2022-10-03T05:28:02.776Z,10.30
2022-10-03T05:29:02.807Z,10.30
2022-10-03T05:30:02.807Z,10.30
2022-10-03T05:31:02.937Z,10.30
2022-10-03T05:32:02.978Z,10.30
2022-10-03T05:33:06.392Z,10.30
2022-10-03T05:34:03.102Z,10.30
2022-10-03T05:35:03.121Z,10.30
2022-10-03T05:36:03.006Z,10.30
2022-10-03T05:37:03.058Z,10.30
2022-10-03T05:38:03.016Z,10.30
2022-10-03T05:39:03.203Z,10.30
2022-10-03T05:40:03.214Z,10.30
2022-10-03T05:41:03.131Z,10.30
2022-10-03T05:42:21.296Z,10.30
2022-10-03T05:43:03.191Z,10.30
2022-10-03T05:44:03.239Z,10.30
2022-10-03T05:45:03.214Z,10.40
2022-10-03T05:46:03.293Z,10.40
2022-10-03T05:47:03.168Z,10.40
2022-10-03T05:48:03.201Z,10.40
2022-10-03T05:49:03.185Z,10.40
2022-10-03T05:50:06.759Z,10.40
2022-10-03T05:51:03.170Z,10.40
2022-10-03T05:52:03.271Z,10.40
2022-10-03T05:53:03.309Z,10.40
2022-10-03T05:54:04.602Z,10.40
2022-10-03T05:55:02.734Z,10.40
2022-10-03T05:56:02.753Z,10.40
2022-10-03T05:57:02.728Z,10.40
2022-10-03T05:58:02.771Z,10.40
2022-10-03T05:59:02.777Z,10.40
2022-10-03T06:00:03.282Z,10.40
2022-10-03T06:01:03.334Z,10.40
2022-10-03T06:02:03.371Z,10.50
2022-10-03T06:03:03.455Z,10.40
2022-10-03T06:04:06.026Z,10.50
2022-10-03T06:05:03.422Z,10.50
2022-10-03T06:06:03.551Z,10.50
2022-10-03T06:07:03.534Z,10.50
2022-10-03T06:08:03.478Z,10.50
2022-10-03T06:09:03.447Z,10.50
2022-10-03T06:10:03.544Z,10.50
2022-10-03T06:11:03.566Z,10.50
2022-10-03T06:12:03.536Z,10.50
2022-10-03T06:13:03.505Z,10.50
2022-10-03T06:14:03.524Z,10.50
2022-10-03T06:15:02.678Z,10.50
2022-10-03T06:16:02.858Z,10.60
2022-10-03T06:17:02.781Z,10.50
2022-10-03T06:18:02.689Z,10.60
2022-10-03T06:19:02.896Z,10.60
2022-10-03T06:20:02.875Z,10.60
2022-10-03T06:21:02.989Z,10.60
2022-10-03T06:22:03.032Z,10.60
2022-10-03T06:23:05.864Z,10.60
2022-10-03T06:24:03.230Z,10.60
2022-10-03T06:25:03.259Z,10.60
2022-10-03T06:26:03.371Z,10.70
2022-10-03T06:27:03.360Z,10.70
2022-10-03T06:28:03.443Z,10.70
2022-10-03T06:29:03.506Z,10.70
2022-10-03T06:30:03.628Z,10.70
2022-10-03T06:31:02.731Z,10.70
2022-10-03T06:32:02.667Z,10.70
2022-10-03T06:33:02.810Z,10.80
2022-10-03T06:34:02.782Z,10.80
2022-10-03T06:35:02.838Z,10.80
2022-10-03T06:36:02.827Z,10.80
2022-10-03T06:37:02.939Z,10.80
2022-10-03T06:38:02.994Z,10.80
2022-10-03T06:39:02.923Z,10.80
2022-10-03T06:40:06.297Z,10.80
2022-10-03T06:41:03.070Z,10.80
2022-10-03T06:42:03.040Z,10.80
2022-10-03T06:43:03.086Z,10.80
2022-10-03T06:44:03.090Z,10.80
2022-10-03T06:45:03.023Z,10.80
2022-10-03T06:46:03.204Z,10.80
2022-10-03T06:47:03.097Z,10.80
2022-10-03T06:48:03.149Z,10.80
2022-10-03T06:49:03.095Z,10.80
2022-10-03T06:50:03.174Z,10.80
2022-10-03T06:51:03.094Z,10.80
2022-10-03T06:52:03.131Z,10.80
2022-10-03T06:53:03.283Z,10.80
2022-10-03T06:54:03.299Z,10.80
2022-10-03T06:55:03.450Z,10.80
2022-10-03T06:56:03.555Z,10.80
2022-10-03T06:57:03.680Z,10.80
2022-10-03T06:58:03.594Z,10.80
2022-10-03T06:59:03.650Z,10.80
2022-10-03T07:00:03.610Z,10.80
2022-10-03T07:01:03.675Z,10.90
2022-10-03T07:02:02.835Z,10.90
2022-10-03T07:03:02.659Z,10.90
2022-10-03T07:04:02.686Z,10.90
2022-10-03T07:05:02.671Z,10.90
2022-10-03T07:06:02.665Z,10.90
2022-10-03T07:07:02.634Z,10.90
2022-10-03T07:08:02.789Z,10.90
2022-10-03T07:09:02.731Z,11.00
2022-10-03T07:10:02.901Z,11.00
2022-10-03T07:11:02.943Z,11.00
2022-10-03T07:12:03.121Z,11.10
2022-10-03T07:13:03.081Z,11.10
2022-10-03T07:14:03.089Z,11.10
2022-10-03T07:15:03.234Z,11.10
2022-10-03T07:16:25.262Z,11.10
2022-10-03T07:17:03.290Z,11.20
2022-10-03T07:18:03.400Z,11.20
2022-10-03T07:19:03.319Z,11.20
2022-10-03T07:20:03.313Z,11.20
2022-10-03T07:21:03.448Z,11.20
2022-10-03T07:22:03.409Z,11.30
2022-10-03T07:23:03.426Z,11.30
2022-10-03T07:24:03.525Z,11.30
2022-10-03T07:25:03.600Z,11.40
2022-10-03T07:26:03.613Z,11.40
2022-10-03T07:27:03.665Z,11.50
2022-10-03T07:28:03.658Z,11.50
2022-10-03T07:29:02.756Z,11.50
2022-10-03T07:30:02.742Z,11.60
2022-10-03T07:31:02.959Z,11.60
2022-10-03T07:32:02.947Z,11.60
2022-10-03T07:33:02.907Z,11.70
2022-10-03T07:34:02.964Z,11.70
2022-10-03T07:35:02.997Z,11.70
2022-10-03T07:36:02.992Z,11.70
2022-10-03T07:37:02.994Z,11.70
2022-10-03T07:38:03.029Z,11.70
2022-10-03T07:39:03.104Z,11.80
2022-10-03T07:40:03.035Z,11.80
2022-10-03T07:41:03.085Z,11.80
2022-10-03T07:42:03.262Z,11.80
2022-10-03T07:43:03.308Z,11.80
2022-10-03T07:44:03.227Z,11.80
2022-10-03T07:45:03.244Z,11.80
2022-10-03T07:46:03.346Z,11.70
2022-10-03T07:47:03.460Z,11.70
2022-10-03T07:48:03.507Z,11.70
2022-10-03T07:49:03.541Z,11.70
2022-10-03T07:50:03.564Z,11.70
2022-10-03T07:51:02.614Z,11.70
2022-10-03T07:52:02.769Z,11.70
2022-10-03T07:53:02.802Z,11.70
2022-10-03T07:54:02.772Z,11.70
2022-10-03T07:55:02.803Z,11.70
2022-10-03T07:56:06.055Z,11.70
2022-10-03T07:57:02.841Z,11.70
2022-10-03T07:58:02.827Z,11.70
2022-10-03T07:59:02.943Z,11.70
2022-10-03T08:00:02.787Z,11.70
2022-10-03T08:01:02.924Z,11.70
2022-10-03T08:02:02.953Z,11.70
2022-10-03T08:03:03.150Z,11.70
2022-10-03T08:04:03.294Z,11.80
2022-10-03T08:05:03.308Z,11.80
2022-10-03T08:06:03.424Z,11.90
2022-10-03T08:07:03.429Z,12.00
2022-10-03T08:08:03.437Z,12.00
2022-10-03T08:09:03.550Z,12.10
2022-10-03T08:10:03.533Z,12.20
2022-10-03T08:11:02.671Z,12.30
2022-10-03T08:12:02.656Z,12.40
2022-10-03T08:13:02.806Z,12.40
2022-10-03T08:14:02.770Z,12.50
2022-10-03T08:15:02.867Z,12.50
2022-10-03T08:16:02.786Z,12.60
2022-10-03T08:17:03.581Z,12.70
2022-10-03T08:18:02.745Z,12.70
2022-10-03T08:19:04.462Z,12.80
2022-10-03T08:20:02.774Z,12.80
2022-10-03T08:21:02.856Z,12.80
2022-10-03T08:22:02.718Z,12.90
2022-10-03T08:23:02.746Z,12.90
2022-10-03T08:24:03.231Z,12.90
2022-10-03T08:25:03.371Z,12.90
2022-10-03T08:26:03.321Z,12.90
2022-10-03T08:27:03.501Z,12.90
2022-10-03T08:28:03.563Z,13.00
2022-10-03T08:29:03.589Z,13.00
2022-10-03T08:30:02.811Z,13.00
2022-10-03T08:31:02.662Z,13.00
2022-10-03T08:32:02.739Z,13.00
2022-10-03T08:33:02.637Z,13.00
2022-10-03T08:34:02.699Z,13.00
2022-10-03T08:35:02.692Z,13.10
2022-10-03T08:36:02.931Z,13.10
2022-10-03T08:37:02.829Z,13.10
2022-10-03T08:38:02.953Z,13.10
2022-10-03T08:39:02.989Z,13.10
2022-10-03T08:40:03.095Z,13.10
2022-10-03T08:41:03.195Z,13.10
2022-10-03T08:42:03.128Z,13.20
2022-10-03T08:43:03.136Z,13.20
2022-10-03T08:44:03.251Z,13.20
2022-10-03T08:45:03.201Z,13.20
2022-10-03T08:46:03.397Z,13.20
2022-10-03T08:47:03.201Z,13.20
2022-10-03T08:48:03.202Z,13.30
2022-10-03T08:49:03.321Z,13.30
2022-10-03T08:50:05.629Z,13.30
2022-10-03T08:51:03.271Z,13.30
2022-10-03T08:52:03.307Z,13.30
2022-10-03T08:53:03.282Z,13.20
2022-10-03T08:54:03.295Z,13.20
2022-10-03T08:55:03.474Z,13.20
2022-10-03T08:56:03.533Z,13.20
2022-10-03T08:57:03.560Z,13.20
2022-10-03T08:58:03.476Z,13.20
2022-10-03T08:59:03.621Z,13.20
2022-10-03T09:00:03.602Z,13.20
2022-10-03T09:01:02.753Z,13.20
2022-10-03T09:02:02.846Z,13.20
2022-10-03T09:03:31.782Z,13.20
2022-10-03T09:04:02.944Z,13.20
2022-10-03T09:05:02.908Z,13.20
2022-10-03T09:06:02.945Z,13.20
2022-10-03T09:07:16.894Z,13.20
2022-10-03T09:08:03.195Z,13.20
2022-10-03T09:09:03.172Z,13.20
2022-10-03T09:10:03.283Z,13.20
2022-10-03T09:11:03.335Z,13.20
2022-10-03T09:12:03.523Z,13.10
2022-10-03T09:13:03.491Z,13.10
2022-10-03T09:14:03.488Z,13.10
2022-10-03T09:15:03.461Z,13.10
2022-10-03T09:16:03.476Z,13.10
2022-10-03T09:17:03.501Z,13.20
2022-10-03T09:18:03.512Z,13.20
2022-10-03T09:19:03.501Z,13.20
2022-10-03T09:20:03.642Z,13.20
2022-10-03T09:21:03.510Z,13.30
2022-10-03T09:22:02.702Z,13.30
2022-10-03T09:23:02.648Z,13.30
2022-10-03T09:24:02.741Z,13.30
2022-10-03T09:25:02.779Z,13.30
2022-10-03T09:26:02.818Z,13.30
2022-10-03T09:27:02.949Z,13.30
2022-10-03T09:28:02.958Z,13.30
2022-10-03T09:29:02.928Z,13.40
2022-10-03T09:30:03.056Z,13.40
2022-10-03T09:31:03.222Z,13.40
2022-10-03T09:32:03.089Z,13.40
2022-10-03T09:33:03.163Z,13.40
2022-10-03T09:34:03.282Z,13.40
2022-10-03T09:35:06.953Z,13.40
2022-10-03T09:36:03.222Z,13.40
2022-10-03T09:37:03.237Z,13.40
2022-10-03T09:38:03.449Z,13.40
2022-10-03T09:39:03.480Z,13.40
2022-10-03T09:40:03.293Z,13.40
2022-10-03T09:41:03.318Z,13.40
2022-10-03T09:42:03.342Z,13.40
2022-10-03T09:43:03.359Z,13.40
2022-10-03T09:44:03.449Z,13.40
2022-10-03T09:45:03.438Z,13.40
2022-10-03T09:46:03.475Z,13.40
2022-10-03T09:47:03.587Z,13.40
2022-10-03T09:48:03.634Z,13.40
2022-10-03T09:49:03.609Z,13.50
2022-10-03T09:50:03.608Z,13.50
2022-10-03T09:51:03.553Z,13.60
2022-10-03T09:52:06.798Z,13.60
2022-10-03T09:53:02.693Z,13.60
2022-10-03T09:54:02.821Z,13.60
2022-10-03T09:55:02.799Z,13.70
2022-10-03T09:56:02.875Z,13.70
2022-10-03T09:57:03.016Z,13.80
2022-10-03T09:58:02.910Z,13.80
2022-10-03T09:59:03.064Z,13.80
2022-10-03T10:00:03.165Z,13.90
2022-10-03T10:01:03.196Z,13.90
2022-10-03T10:02:03.353Z,14.00
2022-10-03T10:03:03.275Z,14.00
2022-10-03T10:04:03.459Z,14.00
2022-10-03T10:05:03.400Z,14.00
2022-10-03T10:06:03.503Z,14.00
2022-10-03T10:07:03.458Z,14.00
2022-10-03T10:08:03.531Z,14.00
2022-10-03T10:09:02.638Z,14.00
2022-10-03T10:10:02.622Z,14.10
2022-10-03T10:11:02.747Z,14.10
2022-10-03T10:12:02.702Z,14.00
2022-10-03T10:13:02.605Z,14.00
2022-10-03T10:14:07.479Z,14.00
2022-10-03T10:15:02.811Z,14.00
2022-10-03T10:16:02.909Z,14.00
2022-10-03T10:17:02.869Z,14.00
2022-10-03T10:18:02.844Z,14.00
2022-10-03T10:19:02.938Z,14.00
2022-10-03T10:20:02.846Z,14.00
2022-10-03T10:21:03.022Z,14.00
2022-10-03T10:22:02.957Z,14.00
2022-10-03T10:23:03.094Z,14.00
2022-10-03T10:24:03.027Z,14.00
2022-10-03T10:25:03.468Z,14.00
2022-10-03T10:26:03.397Z,14.00
2022-10-03T10:27:03.502Z,14.00
2022-10-03T10:28:03.625Z,13.90
2022-10-03T10:29:03.612Z,13.90
2022-10-03T10:30:03.649Z,13.90
2022-10-03T10:31:03.610Z,13.90
2022-10-03T10:32:02.711Z,13.90
2022-10-03T10:33:02.747Z,13.90
2022-10-03T10:34:02.925Z,13.90
2022-10-03T10:35:02.778Z,13.90
2022-10-03T10:36:03.008Z,14.00
2022-10-03T10:37:02.947Z,14.00
2022-10-03T10:38:03.108Z,14.10
2022-10-03T10:39:03.075Z,14.20
2022-10-03T10:40:03.141Z,14.30
2022-10-03T10:41:03.623Z,14.40
2022-10-03T10:42:03.148Z,14.50
2022-10-03T10:43:03.166Z,14.50
2022-10-03T10:44:03.183Z,14.60
2022-10-03T10:45:03.267Z,14.70
2022-10-03T10:46:03.168Z,14.70
2022-10-03T10:47:03.341Z,14.80
2022-10-03T10:48:03.313Z,14.80
2022-10-03T10:49:04.063Z,14.80
2022-10-03T10:50:03.331Z,14.80
2022-10-03T10:51:03.408Z,14.80
2022-10-03T10:52:03.395Z,14.80
2022-10-03T10:53:03.554Z,14.80
2022-10-03T10:54:02.704Z,14.70
2022-10-03T10:55:02.796Z,14.70
2022-10-03T10:56:02.869Z,14.70
2022-10-03T10:57:02.960Z,14.60
2022-10-03T10:58:03.011Z,14.60
2022-10-03T10:59:02.984Z,14.50
2022-10-03T11:00:03.089Z,14.50
2022-10-03T11:01:03.086Z,14.50
2022-10-03T11:02:03.030Z,14.40
2022-10-03T11:03:03.003Z,14.40
2022-10-03T11:04:02.993Z,14.30
2022-10-03T11:05:03.077Z,14.30
2022-10-03T11:06:03.023Z,14.30
2022-10-03T11:07:03.083Z,14.30
2022-10-03T11:08:03.128Z,14.30
2022-10-03T11:09:03.171Z,14.30
2022-10-03T11:10:03.138Z,14.40
2022-10-03T11:11:03.225Z,14.40
2022-10-03T11:12:03.397Z,14.50
2022-10-03T11:13:03.328Z,14.50
2022-10-03T11:14:03.419Z,14.50
2022-10-03T11:15:03.444Z,14.60
2022-10-03T11:16:03.521Z,14.60
2022-10-03T11:17:03.563Z,14.70
2022-10-03T11:18:03.458Z,14.70
2022-10-03T11:19:03.585Z,14.80
2022-10-03T11:20:03.618Z,14.90
2022-10-03T11:21:02.645Z,14.90
2022-10-03T11:22:02.693Z,15.00
2022-10-03T11:23:04.789Z,15.00
2022-10-03T11:24:02.713Z,15.10
2022-10-03T11:25:02.755Z,15.20
2022-10-03T11:26:02.750Z,15.20
2022-10-03T11:27:02.775Z,15.20
2022-10-03T11:28:02.833Z,15.20
2022-10-03T11:29:02.933Z,15.20
2022-10-03T11:30:02.871Z,15.20
2022-10-03T11:31:02.952Z,15.20
2022-10-03T11:32:02.909Z,15.20
2022-10-03T11:33:02.900Z,15.10
2022-10-03T11:34:03.002Z,15.10
2022-10-03T11:35:03.048Z,15.10
2022-10-03T11:36:03.035Z,15.00
2022-10-03T11:37:03.674Z,15.00
2022-10-03T11:38:03.637Z,14.90
2022-10-03T11:39:03.606Z,14.90
2022-10-03T11:40:03.661Z,14.90
2022-10-03T11:41:03.623Z,14.80
2022-10-03T11:42:02.788Z,14.80
2022-10-03T11:43:02.884Z,14.80
2022-10-03T11:44:02.873Z,14.70
2022-10-03T11:45:02.856Z,14.70
2022-10-03T11:46:02.866Z,14.60
2022-10-03T11:47:02.919Z,14.60
2022-10-03T11:48:02.901Z,14.60
2022-10-03T11:49:02.888Z,14.60
2022-10-03T11:50:03.317Z,14.60
2022-10-03T11:51:03.324Z,14.60
2022-10-03T11:52:03.386Z,14.60
2022-10-03T11:53:03.552Z,14.60
2022-10-03T11:54:19.459Z,14.60
2022-10-03T11:55:03.560Z,14.60
2022-10-03T11:56:03.589Z,14.60
2022-10-03T11:57:03.546Z,14.60
2022-10-03T11:58:02.680Z,14.60
2022-10-03T11:59:02.994Z,14.60
2022-10-03T12:00:03.077Z,14.60
2022-10-03T12:01:03.020Z,14.60
2022-10-03T12:02:03.044Z,14.60
2022-10-03T12:03:03.134Z,14.60
2022-10-03T12:04:03.089Z,14.60
2022-10-03T12:05:03.019Z,14.60
2022-10-03T12:06:03.097Z,14.60
2022-10-03T12:07:03.173Z,14.60
2022-10-03T12:08:03.297Z,14.60
2022-10-03T12:09:03.289Z,14.60
2022-10-03T12:10:03.359Z,14.60
2022-10-03T12:11:03.344Z,14.60
2022-10-03T12:12:03.297Z,14.60
2022-10-03T12:13:03.430Z,14.70
2022-10-03T12:14:06.215Z,14.70
2022-10-03T12:15:03.388Z,14.70
2022-10-03T12:16:03.396Z,14.70
2022-10-03T12:17:03.580Z,14.70
2022-10-03T12:18:02.702Z,14.70
2022-10-03T12:19:03.023Z,14.70
2022-10-03T12:20:02.998Z,14.70
2022-10-03T12:21:03.059Z,14.70
2022-10-03T12:22:03.158Z,14.70
2022-10-03T12:23:03.109Z,14.70
2022-10-03T12:24:03.232Z,14.70
2022-10-03T12:25:03.235Z,14.60
2022-10-03T12:26:03.420Z,14.60
2022-10-03T12:27:03.391Z,14.60
2022-10-03T12:28:03.377Z,14.60
2022-10-03T12:29:03.488Z,14.60
2022-10-03T12:30:03.433Z,14.60
2022-10-03T12:31:03.618Z,14.60
2022-10-03T12:32:03.482Z,14.50
2022-10-03T12:33:03.636Z,14.50
2022-10-03T12:34:02.708Z,14.50
2022-10-03T12:35:02.753Z,14.50
2022-10-03T12:36:02.773Z,14.50
2022-10-03T12:37:02.768Z,14.50
2022-10-03T12:38:02.698Z,14.50
2022-10-03T12:39:02.691Z,14.50
2022-10-03T12:40:02.745Z,14.50
2022-10-03T12:41:02.817Z,14.50
2022-10-03T12:42:02.788Z,14.50
2022-10-03T12:43:02.818Z,14.50
2022-10-03T12:44:02.764Z,14.60
2022-10-03T12:45:02.830Z,14.60
2022-10-03T12:46:02.938Z,14.60
2022-10-03T12:47:03.225Z,14.70
2022-10-03T12:48:02.878Z,14.70
2022-10-03T12:49:02.967Z,14.80
2022-10-03T12:50:02.965Z,14.80
2022-10-03T12:51:02.997Z,14.90
2022-10-03T12:52:02.985Z,14.90
2022-10-03T12:53:03.104Z,15.00
2022-10-03T12:54:03.134Z,15.00
2022-10-03T12:55:03.108Z,15.00
2022-10-03T12:56:03.344Z,15.00
2022-10-03T12:57:03.221Z,15.00